YSBG weather

Strathbogie Airport
Victoria, Australia

Public forecast

Using degrees Celsius for public forecast. Weather courtesy of forecast.io.

METAR (pilot weather report)

Closest report is Wangaratta Airport, 38.0 nm (70.4 km) NE. Retrieved 2019/03/21 01:00 UTC (3 minutes ago):

YWGT 210100Z AUTO 02005KT 360V070 9999 // NCD 29/14 Q1015

TAF (pilot weather forecast)

Closest forecast is Wangaratta Airport, 38.0 nm (70.4 km) NE. Retrieved 2019/03/21 02:03 UTC (0 seconds ago):

TAF YWGT 210050Z 2102/2114 03008KT CAVOK FM210400 18006KT CAVOK